Hauptseite
METAR-TAF:

METAR-TAF

Flughäfen :

Grant County Airport

Petersburg, West Virginia, Vereinigte Staaten

Breite: 38-59N, Länge: 079-08W, Höhe: 293 m

Beobachtung

Neuester Wetterbericht von vor 26 Minuten, um 09:55 UTC
Windstille
Temperatur 17°C
Luftfeuchtigkeit 100%
Luftdruck 1022 hPa
Sichtweite: 11.3 km
Geschlossene Wolkendecke in der Höhe von 3900 ft

METAR: KW99 270955Z AUTO 00000KT 7SM OVC039 17/17 A3017 RMK AO2 T01660166

Zeit: 06:21 (10:21 UTC)


TAF: fehlend

Wetterbeobachtungen und Prognosen von mehr als 4000 Flughäfen (METAR und TAF Bericht).

Die verfügbaren Stationen werden durch gelbe und rote Markierungen auf der Karte dargestellt.

Führen Sie die Maus auf sie, um den Namen der Station zu sehen.

Darauf klicken, um die Beobachtung von Wetterbeobachtungen und Prognosen zu sehen.

Um die Karte zu ändern : klicken Sie auf den grünen Tasten mit einem schwarzen Kreuz Zum Vergrößern, auf den grünen Button mit einem Gedankenstrich zu verkleinern, oder auf die grünen Pfeile für benachbarte Karten.


METAR-TAF: